Faisalabad Weather



Faisalabad's Current Weather

Temprature 24.34o clear sky

clear sky

Rain: 0 %

Min Temprature24.34o
Max Temprature24.34o
Humidity60
Wind Speed5.36 m/h
Sun Rise05:06:55
Sun Set19:02:21
Current Time: 24-May-2022 07:21:47
Lat/Lon: 31.4167, 73.0833




Faisalabad's Geo Location



Faisalabad's Weather Forecast

Time Overall Temp Min Temp Max Temp Humidity Wind Speed Rain
24-May-2022 (Tue)
08:00:00 clear sky 25.950 25.950 25.950 54 5.3 m/h 0 %
11:00:00 clear sky 27.460 27.460 30.480 49 4.28 m/h 0 %
14:00:00 clear sky 31.150 31.150 33.750 36 3.56 m/h 0 %
17:00:00 clear sky 34.060 34.060 34.060 23 2.57 m/h 0 %
20:00:00 clear sky 30.940 30.940 30.940 30 1.44 m/h 0 %
23:00:00 clear sky 29.450 29.450 29.450 32 1.79 m/h 0 %
25-May-2022 (Wed)
02:00:00 clear sky 28.320 28.320 28.320 34 1.7 m/h 0 %
05:00:00 clear sky 27.480 27.480 27.480 36 2.04 m/h 0 %
08:00:00 clear sky 31.840 31.840 31.840 27 2.91 m/h 0 %
11:00:00 clear sky 36.090 36.090 36.090 19 2.62 m/h 0 %
14:00:00 clear sky 38.590 38.590 38.590 15 1.58 m/h 0 %
17:00:00 clear sky 38.370 38.370 38.370 15 2.52 m/h 0 %
20:00:00 clear sky 34.650 34.650 34.650 21 3.14 m/h 0 %
23:00:00 clear sky 32.830 32.830 32.830 24 2.48 m/h 0 %
26-May-2022 (Thu)
02:00:00 clear sky 31.350 31.350 31.350 25 2.05 m/h 0 %
05:00:00 clear sky 30.480 30.480 30.480 26 2.23 m/h 0 %
08:00:00 clear sky 34.910 34.910 34.910 20 3.47 m/h 0 %
11:00:00 clear sky 39.970 39.970 39.970 14 2.78 m/h 0 %
14:00:00 clear sky 42.690 42.690 42.690 11 2.17 m/h 0 %
17:00:00 clear sky 42.690 42.690 42.690 10 3.4 m/h 0 %
20:00:00 clear sky 37.440 37.440 37.440 16 3.87 m/h 0 %
23:00:00 clear sky 35.100 35.100 35.100 19 3.56 m/h 0 %
27-May-2022 (Fri)
02:00:00 clear sky 33.710 33.710 33.710 20 3.26 m/h 0 %
05:00:00 clear sky 32.260 32.260 32.260 22 3.44 m/h 0 %
08:00:00 clear sky 36.760 36.760 36.760 20 2.22 m/h 0 %
11:00:00 clear sky 42.070 42.070 42.070 16 2.91 m/h 0 %
14:00:00 clear sky 45.170 45.170 45.170 12 3.42 m/h 0 %
17:00:00 clear sky 45.150 45.150 45.150 12 3.81 m/h 0 %
20:00:00 clear sky 40.080 40.080 40.080 19 4.49 m/h 0 %
23:00:00 clear sky 37.410 37.410 37.410 22 4.35 m/h 0 %
28-May-2022 (Sat)
02:00:00 clear sky 34.930 34.930 34.930 24 4.18 m/h 0 %
05:00:00 clear sky 32.760 32.760 32.760 26 4.48 m/h 0 %
08:00:00 clear sky 36.760 36.760 36.760 10 4.56 m/h 0 %
11:00:00 clear sky 42.880 42.880 42.880 8 3.63 m/h 0 %
14:00:00 clear sky 45.750 45.750 45.750 6 4.21 m/h 0 %
17:00:00 clear sky 45.860 45.860 45.860 4 2.38 m/h 0 %
20:00:00 clear sky 39.410 39.410 39.410 6 2.71 m/h 0 %
23:00:00 clear sky 35.240 35.240 35.240 8 3.32 m/h 0 %
29-May-2022 (Sun)
02:00:00 clear sky 33.130 33.130 33.130 19 7.38 m/h 0 %
05:00:00 clear sky 30.690 30.690 30.690 25 4.06 m/h 0 %


Faisalabad's Tourist Spots

Parks and Zoos in Faisalabad

Famous Cities (61)